CheckWX is a tool to help pilots better visualize weather data.  It is not intended as a substitute for an official pre-flight weather briefing.

19:00:32 UTC

KFPK METAR
Fitch H Beach Airport
Charlotte, Michigan, USA
Current

5 mins ago

KFPK 191856Z AUTO 03003KT 10SM SCT035 SCT041 BKN050 22/20 A2975 RMK AO2 P0023 T02150195
Observed
Jun-19 @ 18:56 UTC
Wind
  • 030° at 3 KTS
Visibility
10 SM
Flight Rules
VFR
Cloud Levels
  • Scattered at 3,500' AGL
  • Scattered at 4,100' AGL
  • Broken at 5,000' AGL
Temperature
22°C / 72°F
Dewpoint
20°C / 68°F
Humidity
88%
Altimeter
29.75" Hg
Pressure
1007.42 hPa
Current Rain
0.23"
Previous

26 mins ago

KFPK 191835Z AUTO 01004KT 10SM SCT039 SCT060 BKN100 21/20 A2976 RMK AO2 P0016 T02140201
Observed
Jun-19 @ 18:35 UTC
Wind
  • 010° at 4 KTS
Visibility
10 SM
Flight Rules
VFR
Cloud Levels
  • Scattered at 3,900' AGL
  • Scattered at 6,000' AGL
  • Broken at 10,000' AGL
Temperature
21°C / 70°F
Dewpoint
20°C / 68°F
Humidity
94%
Altimeter
29.76" Hg
Pressure
1007.82 hPa
Current Rain
0.16"
Previous

44 mins ago

KFPK 191817Z AUTO 02004KT 7SM -RA SCT049 OVC060 20/19 A2975 RMK AO2 P0009 T02010194
Observed
Jun-19 @ 18:17 UTC
Wind
  • 020° at 4 KTS
Visibility
7 SM
Flight Rules
VFR
Conditions
Light Rain
Cloud Levels
  • Scattered at 4,900' AGL
  • Overcast at 6,000' AGL
Temperature
20°C / 68°F
Dewpoint
19°C / 66°F
Humidity
94%
Altimeter
29.75" Hg
Pressure
1007.42 hPa
Current Rain
0.09"